createdAt,value
2023-09-06T00:04:49.787Z,1.10
2023-09-06T00:09:54.520Z,1.00
2023-09-06T00:14:58.993Z,0.95
2023-09-06T00:20:02.627Z,1.15
2023-09-06T00:25:09.221Z,0.93
2023-09-06T00:30:13.687Z,1.00
2023-09-06T00:35:17.794Z,0.70
2023-09-06T00:40:23.645Z,1.00
2023-09-06T00:45:49.221Z,1.00
2023-09-06T00:50:58.236Z,0.80
2023-09-06T00:56:05.056Z,0.80
2023-09-06T01:01:09.975Z,0.90
2023-09-06T01:06:28.344Z,0.90
2023-09-06T01:11:38.315Z,1.07
2023-09-06T01:16:49.879Z,1.40
2023-09-06T01:22:11.974Z,0.98
2023-09-06T01:27:17.169Z,1.10
2023-09-06T01:32:20.757Z,0.95
2023-09-06T01:37:24.414Z,0.70
2023-09-06T01:42:29.254Z,0.88
2023-09-06T01:47:32.852Z,0.70
2023-09-06T01:52:37.915Z,1.10
2023-09-06T01:57:41.682Z,1.15
2023-09-06T02:02:45.519Z,1.20
2023-09-06T02:07:49.451Z,0.70
2023-09-06T02:12:53.230Z,0.93
2023-09-06T02:17:57.553Z,1.02
2023-09-06T02:23:01.172Z,0.98
2023-09-06T02:28:05.986Z,1.20
2023-09-06T02:33:12.867Z,1.13
2023-09-06T02:38:17.433Z,0.70
2023-09-06T02:43:20.959Z,0.73
2023-09-06T02:48:24.822Z,0.80
2023-09-06T02:53:32.466Z,1.05
2023-09-06T02:58:38.830Z,0.80
2023-09-06T03:03:43.656Z,1.00
2023-09-06T03:08:48.199Z,1.07
2023-09-06T03:13:56.529Z,0.77
2023-09-06T03:19:00.526Z,0.70
2023-09-06T03:24:13.524Z,1.20
2023-09-06T03:29:19.086Z,2.70
2023-09-06T03:34:23.322Z,1.13
2023-09-06T03:39:30.460Z,0.80
2023-09-06T03:44:34.518Z,0.97
2023-09-06T03:49:37.982Z,0.87
2023-09-06T03:54:41.938Z,1.10
2023-09-06T03:59:46.224Z,0.77
2023-09-06T04:04:49.983Z,0.90
2023-09-06T04:09:57.658Z,1.20
2023-09-06T04:15:01.279Z,1.10
2023-09-06T04:20:20.351Z,0.97
2023-09-06T04:25:24.131Z,1.10
2023-09-06T04:30:30.119Z,0.90
2023-09-06T04:35:44.352Z,0.70
2023-09-06T04:40:50.280Z,1.00
2023-09-06T04:45:55.292Z,0.77
2023-09-06T04:51:00.542Z,1.07
2023-09-06T04:56:08.010Z,1.00
2023-09-06T05:01:11.897Z,0.80
2023-09-06T05:06:15.758Z,1.00
2023-09-06T05:11:19.967Z,1.07
2023-09-06T05:16:23.712Z,0.83
2023-09-06T05:21:27.174Z,1.35
2023-09-06T05:26:32.306Z,1.85
2023-09-06T05:31:36.140Z,3.00
2023-09-06T05:36:39.819Z,2.88
2023-09-06T05:41:44.071Z,1.75
2023-09-06T05:46:48.611Z,2.58
2023-09-06T05:51:52.347Z,2.35
2023-09-06T05:56:55.893Z,2.08
2023-09-06T06:01:59.488Z,1.75
2023-09-06T06:07:03.213Z,1.45
2023-09-06T06:12:07.399Z,1.10
2023-09-06T06:17:11.026Z,0.70
2023-09-06T06:22:14.693Z,0.93
2023-09-06T06:27:20.085Z,0.70
2023-09-06T06:32:24.092Z,0.70
2023-09-06T06:37:28.233Z,0.52
2023-09-06T06:42:34.492Z,0.80
2023-09-06T06:47:38.382Z,0.73
2023-09-06T06:52:45.865Z,0.90
2023-09-06T06:57:49.725Z,0.77
2023-09-06T07:02:54.095Z,0.90
2023-09-06T07:07:57.848Z,0.70
2023-09-06T07:13:01.607Z,0.93
2023-09-06T07:18:09.741Z,0.63
2023-09-06T07:23:13.639Z,0.60
2023-09-06T07:28:17.594Z,0.68
2023-09-06T07:33:21.385Z,0.50
2023-09-06T07:38:26.012Z,0.70
2023-09-06T07:43:30.787Z,0.47
2023-09-06T07:48:37.155Z,0.60
2023-09-06T07:53:43.064Z,1.92
2023-09-06T07:58:46.910Z,0.70
2023-09-06T08:03:50.258Z,0.60
2023-09-06T08:08:54.038Z,0.47
2023-09-06T08:13:58.235Z,0.40
2023-09-06T08:19:02.128Z,0.70
2023-09-06T08:24:05.898Z,0.60
2023-09-06T08:29:10.648Z,0.50
2023-09-06T08:34:14.339Z,0.85
2023-09-06T08:39:18.033Z,0.63
2023-09-06T08:44:25.696Z,0.60
2023-09-06T08:49:29.556Z,0.47
2023-09-06T08:54:34.699Z,0.60
2023-09-06T08:59:39.826Z,0.52
2023-09-06T09:04:44.236Z,0.50
2023-09-06T09:10:04.956Z,0.50
2023-09-06T09:15:22.856Z,0.70
2023-09-06T09:20:28.620Z,0.70
2023-09-06T09:25:34.394Z,0.60
2023-09-06T09:30:39.457Z,0.40
2023-09-06T09:35:45.208Z,0.38
2023-09-06T09:41:07.325Z,0.40
2023-09-06T09:46:11.409Z,0.52
2023-09-06T09:51:17.711Z,0.57
2023-09-06T09:56:23.504Z,0.70
2023-09-06T10:01:29.644Z,0.70
2023-09-06T10:06:34.106Z,0.52
2023-09-06T10:11:39.024Z,0.40
2023-09-06T10:16:43.019Z,0.90
2023-09-06T10:21:48.152Z,0.50
2023-09-06T10:26:55.351Z,0.68
2023-09-06T10:32:05.821Z,0.50
2023-09-06T10:37:09.495Z,0.40
2023-09-06T10:42:13.223Z,0.73
2023-09-06T10:47:28.812Z,0.50
2023-09-06T10:52:45.360Z,0.65
2023-09-06T10:57:55.973Z,0.65
2023-09-06T11:03:08.946Z,0.45
2023-09-06T11:08:31.267Z,0.55
2023-09-06T11:13:37.001Z,0.63
2023-09-06T11:18:48.815Z,0.60
2023-09-06T11:23:55.373Z,0.43
2023-09-06T11:29:05.504Z,0.70
2023-09-06T11:34:12.663Z,0.50
2023-09-06T11:39:29.879Z,0.45
2023-09-06T11:44:34.912Z,0.50
2023-09-06T11:49:41.711Z,0.50
2023-09-06T11:54:51.429Z,0.50
2023-09-06T11:59:59.454Z,0.75
2023-09-06T12:05:05.313Z,0.45
2023-09-06T12:10:10.064Z,0.30
2023-09-06T12:15:21.611Z,0.40
2023-09-06T12:20:26.024Z,0.45
2023-09-06T12:25:29.669Z,0.50
2023-09-06T12:30:33.352Z,0.43
2023-09-06T12:35:39.893Z,0.70
2023-09-06T12:40:43.964Z,0.68
2023-09-06T12:45:49.018Z,0.40
2023-09-06T12:50:54.854Z,0.57
2023-09-06T12:56:00.300Z,0.60
2023-09-06T13:01:04.626Z,0.80
2023-09-06T13:06:09.976Z,0.50
2023-09-06T13:11:14.047Z,0.70
2023-09-06T13:16:18.190Z,0.82
2023-09-06T13:21:22.437Z,0.50
2023-09-06T13:26:27.439Z,0.50
2023-09-06T13:31:31.308Z,0.52
2023-09-06T13:36:37.521Z,0.47
2023-09-06T13:41:42.555Z,0.50
2023-09-06T13:46:50.950Z,0.60
2023-09-06T13:51:55.016Z,0.77
2023-09-06T13:56:58.783Z,0.50
2023-09-06T14:02:04.815Z,0.57
2023-09-06T14:07:08.695Z,0.63
2023-09-06T14:12:12.249Z,0.40
2023-09-06T14:17:16.175Z,0.60
2023-09-06T14:22:20.637Z,0.50
2023-09-06T14:27:24.568Z,0.45
2023-09-06T14:32:28.465Z,0.60
2023-09-06T14:37:32.252Z,0.50
2023-09-06T14:42:35.622Z,0.70
2023-09-06T14:47:39.252Z,0.73
2023-09-06T14:52:42.720Z,0.60
2023-09-06T14:57:46.473Z,0.65
2023-09-06T15:02:51.316Z,0.40
2023-09-06T15:07:56.828Z,0.60
2023-09-06T15:13:01.272Z,0.40
2023-09-06T15:18:05.955Z,0.40
2023-09-06T15:23:09.739Z,0.60
2023-09-06T15:28:13.321Z,0.40
2023-09-06T15:33:17.253Z,0.55
2023-09-06T15:38:20.862Z,0.40
2023-09-06T15:43:24.921Z,0.57
2023-09-06T15:48:29.008Z,0.43
2023-09-06T15:53:33.399Z,0.55
2023-09-06T15:58:36.952Z,0.45
2023-09-06T16:03:40.638Z,0.30
2023-09-06T16:08:44.453Z,0.60
2023-09-06T16:13:48.026Z,0.60
2023-09-06T16:18:53.251Z,0.45
2023-09-06T16:24:01.710Z,0.47
2023-09-06T16:29:11.977Z,0.50
2023-09-06T16:34:16.172Z,0.85
2023-09-06T16:39:19.885Z,0.50
2023-09-06T16:44:23.678Z,0.75
2023-09-06T16:49:27.387Z,0.60
2023-09-06T16:54:30.953Z,0.60
2023-09-06T16:59:34.646Z,0.47
2023-09-06T17:04:38.108Z,0.57
2023-09-06T17:09:41.699Z,0.90
2023-09-06T17:14:45.271Z,0.80
2023-09-06T17:19:49.265Z,0.50
2023-09-06T17:24:52.737Z,0.50
2023-09-06T17:29:56.322Z,0.98
2023-09-06T17:35:01.590Z,0.80
2023-09-06T17:40:11.740Z,0.77
2023-09-06T17:45:16.405Z,0.77
2023-09-06T17:50:20.267Z,0.82
2023-09-06T17:55:26.507Z,0.70
2023-09-06T18:00:30.225Z,0.93
2023-09-06T18:05:34.635Z,0.50
2023-09-06T18:10:39.676Z,0.55
2023-09-06T18:15:43.767Z,0.68
2023-09-06T18:20:48.166Z,0.77
2023-09-06T18:25:57.541Z,0.65
2023-09-06T18:31:02.864Z,0.55
2023-09-06T18:36:10.593Z,0.80
2023-09-06T18:41:14.364Z,0.73
2023-09-06T18:46:17.985Z,0.95
2023-09-06T18:51:21.729Z,0.60
2023-09-06T18:56:25.210Z,0.60
2023-09-06T19:01:29.937Z,0.60
2023-09-06T19:06:35.750Z,0.40
2023-09-06T19:11:39.480Z,1.35
2023-09-06T19:16:43.203Z,0.90
2023-09-06T19:21:46.889Z,0.75
2023-09-06T19:26:50.711Z,0.55
2023-09-06T19:31:54.649Z,0.77
2023-09-06T19:36:59.291Z,0.70
2023-09-06T19:42:03.069Z,0.60
2023-09-06T19:47:06.881Z,0.70
2023-09-06T19:52:11.222Z,0.60
2023-09-06T19:57:16.810Z,0.40
2023-09-06T20:02:20.511Z,0.50
2023-09-06T20:07:24.426Z,0.47
2023-09-06T20:12:28.269Z,0.60
2023-09-06T20:17:32.141Z,0.70
2023-09-06T20:22:35.644Z,0.68
2023-09-06T20:27:39.380Z,0.50
2023-09-06T20:32:43.347Z,0.60
2023-09-06T20:37:47.063Z,0.55
2023-09-06T20:42:50.675Z,0.52
2023-09-06T20:47:54.626Z,0.57
2023-09-06T20:52:58.541Z,0.70
2023-09-06T20:58:02.696Z,0.68
2023-09-06T21:03:06.224Z,0.60
2023-09-06T21:08:09.818Z,0.65
2023-09-06T21:13:13.379Z,0.60
2023-09-06T21:18:17.194Z,0.63
2023-09-06T21:23:20.717Z,0.68
2023-09-06T21:28:24.080Z,0.70
2023-09-06T21:33:27.960Z,0.50
2023-09-06T21:38:31.765Z,0.73
2023-09-06T21:43:35.717Z,0.52
2023-09-06T21:48:41.185Z,0.50
2023-09-06T21:53:45.728Z,0.50
2023-09-06T21:58:49.453Z,0.60
2023-09-06T22:03:53.254Z,0.70
2023-09-06T22:08:57.107Z,0.63
2023-09-06T22:14:00.911Z,0.63
2023-09-06T22:19:04.775Z,0.70
2023-09-06T22:24:10.272Z,0.70
2023-09-06T22:29:13.921Z,0.63
2023-09-06T22:34:17.504Z,0.60
2023-09-06T22:39:21.108Z,0.50
2023-09-06T22:44:24.688Z,0.40
2023-09-06T22:49:28.300Z,0.50
2023-09-06T22:54:32.001Z,0.57
2023-09-06T22:59:37.404Z,0.75
2023-09-06T23:04:42.932Z,0.40
2023-09-06T23:09:46.506Z,0.50
2023-09-06T23:14:50.679Z,0.47
2023-09-06T23:19:57.165Z,0.90
2023-09-06T23:25:02.032Z,0.55
2023-09-06T23:30:10.760Z,0.70
2023-09-06T23:35:15.404Z,0.40
2023-09-06T23:40:23.422Z,0.70
2023-09-06T23:45:27.176Z,0.60
2023-09-06T23:50:32.823Z,0.82
2023-09-06T23:55:37.101Z,0.40
